Time;durP1;ratioP1;P1;durP2;ratioP2;P2;SDS_P1;SDS_P2;PMS_P1;PMS_P2;Temp;Humidity;BMP_temperature;BMP_pressure;BME280_temperature;BME280_humidity;BME280_pressure;Samples;Min_cycle;Max_cycle;Signal;HPM_P1;HPM_P2
2022/10/10 00:01:20;;;;;;;4.78;4.47;;;;;;;6.13;100.00;101242.28;6029584;23;20038;-77
2022/10/10 00:03:47;;;;;;;4.25;3.95;;;;;;;6.11;100.00;101244.03;6036315;23;20023;-77
2022/10/10 00:06:14;;;;;;;4.20;4.00;;;;;;;5.35;100.00;101117.38;6037627;23;20382;-76
2022/10/10 00:08:41;;;;;;;3.88;3.67;;;;;;;5.68;100.00;101172.13;6064758;23;20023;-75
2022/10/10 00:11:09;;;;;;;4.30;4.00;;;;;;;5.54;100.00;101143.81;6033931;23;20033;-79
2022/10/10 00:13:35;;;;;;;4.03;3.83;;;;;;;6.08;100.00;101230.25;6009490;23;20015;-77
2022/10/10 00:16:03;;;;;;;3.90;3.70;;;;;;;4.93;100.00;101072.38;6033874;23;20030;-78
2022/10/10 00:18:30;;;;;;;4.80;4.50;;;;;;;5.07;100.00;101091.16;6017522;23;20093;-77
2022/10/10 00:20:57;;;;;;;4.25;4.05;;;;;;;5.90;100.00;101221.94;6037085;23;20026;-78
2022/10/10 00:23:24;;;;;;;4.22;4.03;;;;;;;5.81;100.00;101196.09;6010390;23;20011;-78
2022/10/10 00:25:50;;;;;;;4.18;3.97;;;;;;;6.04;100.00;101239.03;6070193;23;20044;-78
2022/10/10 00:28:17;;;;;;;4.07;3.88;;;;;;;6.02;100.00;101231.25;6041428;23;20478;-77
2022/10/10 00:30:44;;;;;;;4.03;3.83;;;;;;;6.02;100.00;101233.00;6039317;23;20060;-78
2022/10/10 00:33:11;;;;;;;3.55;3.42;;;;;;;5.50;100.00;101147.38;6038216;23;20068;-77
2022/10/10 00:35:38;;;;;;;4.10;3.90;;;;;;;4.98;100.00;101070.56;6069517;23;20017;-78
2022/10/10 00:38:04;;;;;;;3.88;3.67;;;;;;;5.22;100.00;101108.16;6036951;23;20125;-77
2022/10/10 00:40:31;;;;;;;4.10;3.90;;;;;;;6.01;100.00;101236.50;6064590;23;20030;-78
2022/10/10 00:42:58;;;;;;;4.25;4.05;;;;;;;5.45;100.00;101141.41;6035797;23;20011;-77
2022/10/10 00:45:27;;;;;;;4.32;4.00;;;;;;;6.05;100.00;101238.13;6064433;23;20018;-78
2022/10/10 00:48:05;;;;;;;3.95;3.75;;;;;;;5.25;100.00;101130.63;6038840;23;20041;-77
2022/10/10 00:50:36;;;;;;;3.95;3.75;;;;;;;6.03;100.00;101229.50;6008208;23;20086;-78
2022/10/10 00:53:05;;;;;;;3.75;3.58;;;;;;;5.52;100.00;101155.16;6022599;23;20051;-76
2022/10/10 00:55:32;;;;;;;4.30;4.03;;;;;;;5.34;100.00;101115.66;6046933;23;20030;-79
2022/10/10 00:57:59;;;;;;;4.45;4.25;;;;;;;4.98;100.00;101054.94;6042542;23;20006;-77
2022/10/10 01:00:25;;;;;;;4.10;3.80;;;;;;;5.23;100.00;101088.19;6041004;23;20023;-78
2022/10/10 01:02:52;;;;;;;4.07;3.88;;;;;;;4.90;100.00;101033.47;6025990;23;20073;-78
2022/10/10 01:05:19;;;;;;;4.43;4.13;;;;;;;5.88;100.00;101195.09;6006728;23;20543;-77
2022/10/10 01:07:45;;;;;;;4.20;3.90;;;;;;;6.01;100.00;101210.44;6012701;23;20275;-77
2022/10/10 01:10:15;;;;;;;4.32;4.13;;;;;;;5.99;100.00;101202.66;6026781;23;20184;-77
2022/10/10 01:12:52;;;;;;;4.45;4.15;;;;;;;5.83;100.00;101211.72;6068320;23;20034;-77
2022/10/10 01:15:38;;;;;;;4.10;3.90;;;;;;;5.94;100.00;101197.53;6031921;23;20023;-76
2022/10/10 01:18:33;;;;;;;4.55;4.25;;;;;;;5.24;100.00;101082.09;6010267;23;20022;-77
2022/10/10 01:21:37;;;;;;;3.90;3.70;;;;;;;5.92;100.00;101201.06;6007978;23;20062;-75
2022/10/10 01:24:18;;;;;;;3.92;3.63;;;;;;;5.12;100.00;101067.63;6026121;23;20024;-77
2022/10/10 01:27:08;;;;;;;3.60;3.45;;;;;;;5.71;100.00;101165.97;6055860;23;20054;-77
2022/10/10 01:29:35;;;;;;;3.80;3.60;;;;;;;5.82;100.00;101184.81;6035454;23;20610;-79
2022/10/10 01:32:12;;;;;;;3.95;3.70;;;;;;;5.33;100.00;101103.56;6035544;23;20018;-77
2022/10/10 01:35:08;;;;;;;3.70;3.50;;;;;;;5.44;100.00;101134.53;6006476;23;20280;-77
2022/10/10 01:37:47;;;;;;;4.28;3.92;;;;;;;5.46;100.00;101137.94;6013511;23;20085;-77
2022/10/10 01:40:36;;;;;;;4.35;4.05;;;;;;;3.62;100.00;100831.06;6059438;23;20076;-76
2022/10/10 01:43:06;;;;;;;4.63;3.72;;;;;;;5.52;100.00;101163.81;6065686;23;20030;-77
2022/10/10 01:45:32;;;;;;;4.60;4.18;;;;;;;5.40;100.00;101125.06;6061559;23;20037;-77
2022/10/10 01:48:02;;;;;;;4.10;3.83;;;;;;;5.63;100.00;101166.16;6033901;23;20019;-76
2022/10/10 01:50:32;;;;;;;3.45;3.28;;;;;;;4.13;100.00;100949.41;6034692;23;20072;-77
2022/10/10 01:53:10;;;;;;;4.70;3.65;;;;;;;5.60;100.00;101164.50;6046206;23;20444;-78
2022/10/10 01:56:01;;;;;;;3.67;3.53;;;;;;;5.66;100.00;101157.44;6033877;23;20026;-78
2022/10/10 01:58:44;;;;;;;4.00;3.80;;;;;;;5.25;100.00;101095.09;6027609;23;20089;-77
2022/10/10 02:01:10;;;;;;;3.60;3.45;;;;;;;5.65;100.00;101150.50;6021102;23;20042;-77
2022/10/10 02:03:42;;;;;;;4.18;3.97;;;;;;;5.47;100.00;101126.66;6028675;23;20030;-78
2022/10/10 02:06:16;;;;;;;3.47;3.38;;;;;;;5.37;100.00;101126.00;6071965;23;20049;-78
2022/10/10 02:08:48;;;;;;;3.70;3.50;;;;;;;5.20;100.00;101069.16;6033947;23;20089;-79
2022/10/10 02:11:15;;;;;;;3.80;3.63;;;;;;;5.12;100.00;101046.81;6033973;23;20089;-78
2022/10/10 02:13:45;;;;;;;3.67;3.47;;;;;;;5.75;100.00;101152.88;6052155;23;20057;-77
2022/10/10 02:16:17;;;;;;;9.00;4.07;;;;;;;5.75;100.00;101134.63;6060814;23;20026;-77
2022/10/10 02:18:46;;;;;;;4.25;3.95;;;;;;;5.36;100.00;101092.22;6054180;23;20029;-77
2022/10/10 02:21:14;;;;;;;3.90;3.70;;;;;;;5.81;100.00;101131.00;6041386;23;20030;-76
2022/10/10 02:23:44;;;;;;;3.90;3.70;;;;;;;5.51;100.00;101080.56;6071773;23;20041;-79
2022/10/10 02:26:14;;;;;;;4.32;4.10;;;;;;;5.11;100.00;101003.47;6038858;23;20022;-77
2022/10/10 02:28:47;;;;;;;4.30;4.10;;;;;;;5.63;100.00;101072.44;6014555;23;20034;-76
2022/10/10 02:31:19;;;;;;;3.90;3.70;;;;;;;5.37;100.00;101047.94;6018800;23;20478;-77
2022/10/10 02:33:56;;;;;;;3.80;3.60;;;;;;;5.93;100.00;101119.41;6067797;23;20041;-79
2022/10/10 02:36:25;;;;;;;4.35;4.15;;;;;;;4.66;100.00;100892.75;6019954;23;20023;-78
2022/10/10 02:38:53;;;;;;;3.80;3.60;;;;;;;5.69;100.00;101067.09;6039438;23;20033;-76
2022/10/10 02:41:21;;;;;;;4.25;4.05;;;;;;;5.87;100.00;101086.56;6035883;23;20079;-77
2022/10/10 02:43:51;;;;;;;3.80;3.60;;;;;;;6.04;100.00;101100.94;6041018;23;20022;-76
2022/10/10 02:46:18;;;;;;;3.90;3.70;;;;;;;5.37;100.00;100992.41;6032955;23;20045;-77
2022/10/10 02:48:45;;;;;;;4.35;4.05;;;;;;;4.87;100.00;100911.31;6030431;23;20058;-78
2022/10/10 02:51:14;;;;;;;5.65;4.72;;;;;;;6.07;100.00;101103.44;6045516;23;20034;-76
2022/10/10 02:53:41;;;;;;;4.05;3.85;;;;;;;5.35;100.00;100963.84;6033596;23;20019;-75
2022/10/10 02:56:07;;;;;;;3.75;3.55;;;;;;;5.20;100.00;100944.25;6037807;23;20023;-76
2022/10/10 02:58:34;;;;;;;3.90;3.70;;;;;;;6.17;100.00;101095.38;6011861;23;20026;-77
2022/10/10 03:01:00;;;;;;;3.95;3.75;;;;;;;5.06;100.00;100909.94;6032610;23;20011;-77
2022/10/10 03:03:27;;;;;;;3.80;3.60;;;;;;;5.84;100.00;101044.97;6039823;23;20041;-77
2022/10/10 03:05:53;;;;;;;3.55;3.45;;;;;;;5.86;100.00;101058.81;6045356;23;20042;-78
2022/10/10 03:08:19;;;;;;;3.50;3.40;;;;;;;5.30;100.00;100954.44;6067129;23;20018;-77
2022/10/10 03:10:54;;;;;;;3.80;3.60;;;;;;;5.98;100.00;101070.69;6015466;23;20061;-78
2022/10/10 03:13:21;;;;;;;4.10;3.80;;;;;;;5.06;100.00;100925.56;6070202;23;20111;-77
2022/10/10 03:15:47;;;;;;;3.70;3.60;;;;;;;5.58;100.00;101017.03;6034989;23;20023;-77
2022/10/10 03:18:14;;;;;;;3.72;3.58;;;;;;;6.06;100.00;101099.16;6009572;23;20026;-79
2022/10/10 03:20:40;;;;;;;3.83;3.63;;;;;;;5.64;100.00;101024.69;6061679;23;20026;-78
2022/10/10 03:23:07;;;;;;;4.40;4.20;;;;;;;5.90;100.00;101057.00;6038562;23;20096;-78
2022/10/10 03:25:33;;;;;;;4.00;3.80;;;;;;;5.92;100.00;101053.44;6039092;23;20018;-78
2022/10/10 03:28:00;;;;;;;4.00;3.70;;;;;;;5.71;100.00;101021.03;6039453;23;20026;-79
2022/10/10 03:30:26;;;;;;;3.90;3.70;;;;;;;5.12;100.00;100911.53;6012988;23;20547;-77
2022/10/10 03:32:53;;;;;;;4.07;3.85;;;;;;;5.89;100.00;101050.91;6010016;23;20435;-77
2022/10/10 03:35:19;;;;;;;3.83;3.63;;;;;;;5.91;100.00;101036.13;6033260;23;20611;-78
2022/10/10 03:37:46;;;;;;;3.55;3.45;;;;;;;6.04;100.00;101060.09;6061315;23;20072;-78
2022/10/10 03:40:12;;;;;;;4.13;3.90;;;;;;;5.74;100.00;101040.91;6036512;23;20211;-78
2022/10/10 03:42:38;;;;;;;3.88;3.70;;;;;;;4.69;100.00;100845.91;6036434;23;20030;-79
2022/10/10 03:45:05;;;;;;;4.18;3.97;;;;;;;6.17;100.00;101084.94;6044432;23;20022;-76
2022/10/10 03:47:31;;;;;;;4.10;3.90;;;;;;;5.83;100.00;101022.44;6036779;23;20414;-77
2022/10/10 03:49:58;;;;;;;3.78;3.60;;;;;;;5.85;100.00;101045.84;6011612;23;20557;-77
2022/10/10 03:52:24;;;;;;;4.45;4.15;;;;;;;5.93;100.00;101054.28;6038168;23;20664;-77
2022/10/10 03:54:51;;;;;;;4.50;4.30;;;;;;;4.55;100.00;100824.56;6036423;23;20372;-76
2022/10/10 03:57:17;;;;;;;4.00;3.80;;;;;;;6.06;100.00;101073.94;6033342;23;20035;-77
2022/10/10 03:59:43;;;;;;;5.05;4.65;;;;;;;5.56;100.00;100988.44;6062619;23;20062;-76
2022/10/10 04:02:10;;;;;;;4.72;4.43;;;;;;;5.69;100.00;101017.63;6037288;23;20015;-78
2022/10/10 04:04:36;;;;;;;3.90;3.70;;;;;;;5.40;100.00;100987.13;6042520;23;20018;-78
2022/10/10 04:07:02;;;;;;;4.07;3.88;;;;;;;5.53;100.00;101004.16;6041916;23;20018;-77
2022/10/10 04:09:29;;;;;;;3.88;3.67;;;;;;;5.98;100.00;101065.47;6006559;23;20023;-77
2022/10/10 04:11:55;;;;;;;3.80;3.60;;;;;;;5.51;100.00;100976.44;6036639;23;20118;-78
2022/10/10 04:14:22;;;;;;;3.88;3.67;;;;;;;5.43;100.00;100970.56;6042714;23;20097;-77
2022/10/10 04:16:48;;;;;;;3.83;3.63;;;;;;;5.59;100.00;101006.59;6006861;23;20077;-77
2022/10/10 04:19:15;;;;;;;3.55;3.35;;;;;;;5.38;100.00;100948.13;6005776;23;20030;-77
2022/10/10 04:21:41;;;;;;;4.80;4.43;;;;;;;4.05;100.00;100733.16;6040008;23;20022;-79
2022/10/10 04:24:08;;;;;;;4.03;3.83;;;;;;;6.17;100.00;101060.59;6034928;23;20030;-77
2022/10/10 04:26:35;;;;;;;4.47;4.28;;;;;;;6.04;100.00;101028.00;6014528;23;20101;-77
2022/10/10 04:29:01;;;;;;;3.75;3.60;;;;;;;5.73;100.00;100981.91;6065400;23;20026;-78
2022/10/10 04:31:28;;;;;;;4.43;4.22;;;;;;;5.83;100.00;100993.78;6064224;23;20030;-78
2022/10/10 04:33:54;;;;;;;5.13;4.63;;;;;;;6.19;100.00;101061.41;6036136;23;20034;-77
2022/10/10 04:36:21;;;;;;;4.30;4.10;;;;;;;5.92;100.00;101024.78;6054659;23;20627;-77
2022/10/10 04:38:47;;;;;;;4.13;3.83;;;;;;;5.19;100.00;100905.25;6031190;23;20114;-77
2022/10/10 04:41:13;;;;;;;4.13;3.83;;;;;;;5.18;100.00;100901.81;6009760;23;20015;-77
2022/10/10 04:43:40;;;;;;;3.72;3.53;;;;;;;5.58;100.00;100978.84;6030607;23;20853;-78
2022/10/10 04:46:06;;;;;;;3.85;3.58;;;;;;;5.43;100.00;100973.19;6065284;23;20080;-77
2022/10/10 04:48:33;;;;;;;4.20;4.00;;;;;;;4.99;100.00;100874.56;6033283;23;20441;-77
2022/10/10 04:50:59;;;;;;;6.95;3.97;;;;;;;5.48;100.00;100951.34;6032307;23;20604;-77
2022/10/10 04:53:26;;;;;;;3.83;3.63;;;;;;;4.45;100.00;100786.72;6066875;23;20030;-77
2022/10/10 04:55:53;;;;;;;3.53;3.42;;;;;;;5.71;100.00;100994.13;6006995;23;20073;-76
2022/10/10 04:58:20;;;;;;;4.25;3.95;;;;;;;5.69;100.00;100981.16;6035356;23;20029;-77
2022/10/10 05:00:53;;;;;;;4.00;3.80;;;;;;;5.55;100.00;100968.53;6002537;23;20035;-78
2022/10/10 05:03:21;;;;;;;4.32;4.13;;;;;;;5.83;100.00;101003.34;6064991;23;20042;-77
2022/10/10 05:05:48;;;;;;;4.05;3.85;;;;;;;5.24;100.00;100905.16;6040245;23;20101;-78
2022/10/10 05:08:15;;;;;;;4.70;4.35;;;;;;;5.76;100.00;101006.13;6035006;23;20378;-78
2022/10/10 05:10:41;;;;;;;4.35;4.15;;;;;;;6.03;100.00;101058.38;6011620;23;20041;-77
2022/10/10 05:13:11;;;;;;;4.18;3.97;;;;;;;6.05;100.00;101055.75;6034620;23;20294;-77
2022/10/10 05:15:37;;;;;;;4.00;3.80;;;;;;;5.22;100.00;100927.78;6016574;23;20042;-77
2022/10/10 05:18:04;;;;;;;3.97;3.78;;;;;;;6.06;100.00;101055.72;6012341;23;20438;-76
2022/10/10 05:20:32;;;;;;;3.97;3.78;;;;;;;6.06;100.00;101058.31;6031066;23;20034;-78
2022/10/10 05:22:58;;;;;;;3.78;3.58;;;;;;;5.34;100.00;100920.47;6030943;23;20069;-78
2022/10/10 05:25:25;;;;;;;5.43;4.25;;;;;;;5.47;100.00;100978.28;6066196;18;20038;-77
2022/10/10 05:27:51;;;;;;;3.45;3.35;;;;;;;4.57;100.00;100796.78;6075038;23;20029;-78
2022/10/10 05:30:18;;;;;;;3.55;3.45;;;;;;;5.33;100.00;100921.38;6080704;23;20018;-77
2022/10/10 05:32:44;;;;;;;3.83;3.63;;;;;;;5.35;100.00;100924.81;6079945;23;20030;-78
2022/10/10 05:35:11;;;;;;;4.50;4.20;;;;;;;6.12;100.00;101047.72;6076171;23;20011;-77
2022/10/10 05:37:37;;;;;;;4.25;4.00;;;;;;;5.99;100.00;101031.59;6071327;23;20394;-78
2022/10/10 05:40:04;;;;;;;3.90;3.70;;;;;;;5.99;100.00;101028.97;6046403;23;20034;-77
2022/10/10 05:42:31;;;;;;;4.07;3.83;;;;;;;5.40;100.00;100928.13;6081904;23;20061;-76
2022/10/10 05:44:57;;;;;;;4.15;3.95;;;;;;;6.16;100.00;101051.94;6068848;23;20053;-78
2022/10/10 05:47:24;;;;;;;3.97;3.78;;;;;;;5.68;100.00;100955.16;6084692;23;20026;-77
2022/10/10 05:49:56;;;;;;;4.10;3.90;;;;;;;5.70;100.00;100966.38;6089164;23;20025;-77
2022/10/10 05:52:22;;;;;;;4.10;3.90;;;;;;;5.73;100.00;100972.38;6058576;23;20033;-76
2022/10/10 05:54:49;;;;;;;4.30;4.00;;;;;;;5.50;100.00;100925.28;6018825;23;20022;-77
2022/10/10 05:57:15;;;;;;;4.00;3.65;;;;;;;6.05;100.00;101008.84;6074207;23;20068;-76
2022/10/10 05:59:42;;;;;;;4.05;3.85;;;;;;;6.22;100.00;101032.69;6039583;23;20023;-77
2022/10/10 06:02:08;;;;;;;4.53;4.22;;;;;;;6.04;100.00;100991.53;6075611;23;20029;-78
2022/10/10 06:04:35;;;;;;;4.03;3.83;;;;;;;6.08;100.00;100999.19;6066862;23;20337;-75
2022/10/10 06:07:01;;;;;;;4.10;3.90;;;;;;;5.51;100.00;100895.72;6042286;23;20018;-74
2022/10/10 06:09:27;;;;;;;3.90;3.70;;;;;;;6.15;100.00;101000.75;6069998;23;20524;-74
2022/10/10 06:11:54;;;;;;;3.80;3.60;;;;;;;5.48;100.00;100875.00;6029639;23;20028;-75
2022/10/10 06:14:20;;;;;;;3.67;3.50;;;;;;;6.25;100.00;101001.28;6049617;23;20018;-75
2022/10/10 06:16:48;;;;;;;4.30;4.03;;;;;;;6.63;100.00;101042.78;6074804;23;20672;-75
2022/10/10 06:19:15;;;;;;;4.18;3.97;;;;;;;6.08;100.00;100946.25;6061970;23;20579;-75
2022/10/10 06:21:42;;;;;;;3.75;3.55;;;;;;;6.30;100.00;100988.16;6036389;23;20038;-74
2022/10/10 06:24:09;;;;;;;4.45;4.18;;;;;;;6.15;100.00;100934.72;6074461;23;20217;-75
2022/10/10 06:26:35;;;;;;;4.10;3.90;;;;;;;6.07;100.00;100914.09;6049367;23;20022;-74
2022/10/10 06:29:02;;;;;;;4.05;3.75;;;;;;;6.21;100.00;100903.25;6081449;23;20030;-75
2022/10/10 06:31:28;;;;;;;4.50;4.28;;;;;;;5.72;100.00;100816.16;6075559;23;20030;-74
2022/10/10 06:33:57;;;;;;;4.10;3.90;;;;;;;6.84;100.00;100986.50;6048515;23;20559;-75
2022/10/10 06:36:23;;;;;;;4.60;4.40;;;;;;;6.44;100.00;100906.91;6062384;23;20114;-74
2022/10/10 06:38:49;;;;;;;6.40;4.47;;;;;;;7.37;100.00;101051.72;6056096;23;20010;-74
2022/10/10 06:41:16;;;;;;;4.22;3.92;;;;;;;7.42;100.00;101049.84;6087260;23;20025;-74
2022/10/10 06:43:44;;;;;;;4.20;4.00;;;;;;;6.94;100.00;100939.19;6057172;23;20711;-74
2022/10/10 06:46:10;;;;;;;4.22;4.03;;;;;;;7.77;100.00;101053.00;6056122;23;20511;-74
2022/10/10 06:48:37;;;;;;;4.85;4.45;;;;;;;7.07;100.00;100920.50;6049520;23;20027;-74
2022/10/10 06:51:06;;;;;;;5.35;3.97;;;;;;;8.05;100.00;101063.31;6074546;23;20455;-74
2022/10/10 06:53:33;;;;;;;4.28;4.07;;;;;;;7.83;100.00;100997.91;6046291;23;20072;-74
2022/10/10 06:56:00;;;;;;;4.45;4.15;;;;;;;8.36;100.00;101063.06;6043231;23;20026;-74
2022/10/10 06:58:28;;;;;;;4.88;4.47;;;;;;;7.99;100.00;100966.84;6070400;23;20080;-74
2022/10/10 07:01:00;;;;;;;4.07;3.88;;;;;;;8.59;100.00;101035.22;6042612;23;20504;-75
2022/10/10 07:03:28;;;;;;;4.90;4.60;;;;;;;8.85;100.00;101046.44;6039196;23;20034;-74
2022/10/10 07:05:57;;;;;;;4.35;4.15;;;;;;;8.88;100.00;101025.38;6027886;23;20015;-74
2022/10/10 07:08:24;;;;;;;4.65;4.45;;;;;;;9.07;100.00;101031.56;6031818;23;20034;-74
2022/10/10 07:10:51;;;;;;;4.78;4.38;;;;;;;9.26;100.00;101060.50;6035938;23;20023;-74
2022/10/10 07:13:17;;;;;;;4.85;4.55;;;;;;;9.40;100.00;101046.81;6038732;23;20402;-75
2022/10/10 07:15:44;;;;;;;4.65;4.45;;;;;;;9.11;100.00;100983.41;6038578;23;20030;-73
2022/10/10 07:18:10;;;;;;;4.93;4.63;;;;;;;9.21;100.00;100975.19;6076769;23;20666;-73
2022/10/10 07:20:38;;;;;;;5.20;4.50;;;;;;;9.67;100.00;101041.34;6047851;23;20056;-72
2022/10/10 07:23:04;;;;;;;5.05;4.65;;;;;;;8.43;100.00;100824.88;6038553;23;20703;-74
2022/10/10 07:25:31;;;;;;;7.03;5.13;;;;;;;9.84;100.00;101041.44;6063464;23;20027;-75
2022/10/10 07:27:57;;;;;;;13.05;5.13;;;;;;;9.60;100.00;101001.41;6044143;23;20026;-74
2022/10/10 07:30:24;;;;;;;4.40;4.20;;;;;;;10.19;100.00;101091.50;6075060;23;20022;-73
2022/10/10 07:32:53;;;;;;;4.60;4.30;;;;;;;9.96;100.00;100991.09;6073207;23;20568;-72
2022/10/10 07:35:20;;;;;;;5.03;4.72;;;;;;;9.72;100.00;100950.25;6006453;23;20023;-74
2022/10/10 07:37:47;;;;;;;5.00;4.70;;;;;;;10.14;100.00;101002.53;6071660;23;20367;-74
2022/10/10 07:40:13;;;;;;;6.00;5.47;;;;;;;10.53;100.00;101064.63;6036309;23;20022;-74
2022/10/10 07:42:40;;;;;;;5.97;5.38;;;;;;;10.05;100.00;100992.44;6076004;23;20036;-75
2022/10/10 07:45:07;;;;;;;5.13;4.70;;;;;;;10.53;100.00;101069.88;6071282;23;20114;-75
2022/10/10 07:47:33;;;;;;;5.10;4.80;;;;;;;10.43;100.00;101041.50;6022768;23;20015;-74
2022/10/10 07:50:00;;;;;;;10.02;5.32;;;;;;;10.41;100.00;101017.13;6078247;23;20030;-75
2022/10/10 07:52:26;;;;;;;6.68;5.40;;;;;;;10.21;100.00;100979.50;6070372;23;20030;-74
2022/10/10 07:54:52;;;;;;;5.90;5.35;;;;;;;10.63;100.00;101041.41;6046590;23;20072;-75
2022/10/10 07:57:19;;;;;;;5.22;4.82;;;;;;;10.46;100.00;101029.06;6045120;23;20023;-75
2022/10/10 07:59:45;;;;;;;5.15;4.85;;;;;;;10.55;100.00;101020.78;6077307;23;20120;-73
2022/10/10 08:02:11;;;;;;;4.45;4.25;;;;;;;10.77;100.00;101056.53;6071385;23;20033;-73
2022/10/10 08:04:39;;;;;;;5.88;5.47;;;;;;;10.32;100.00;100982.50;6025041;23;20022;-74
2022/10/10 08:07:06;;;;;;;5.15;4.85;;;;;;;10.60;100.00;101020.56;6037872;23;20034;-75
2022/10/10 08:09:32;;;;;;;4.78;4.47;;;;;;;10.86;100.00;101061.31;6044317;23;20022;-74
2022/10/10 08:11:59;;;;;;;5.53;5.13;;;;;;;10.25;100.00;100959.22;6044917;23;20018;-73
2022/10/10 08:14:25;;;;;;;4.70;4.40;;;;;;;10.65;100.00;101041.34;6061490;23;20054;-74
2022/10/10 08:16:51;;;;;;;5.18;4.78;;;;;;;10.30;100.00;100978.25;6054924;23;20080;-74
2022/10/10 08:19:18;;;;;;;4.97;4.68;;;;;;;10.48;100.00;101016.72;6073475;23;20006;-74
2022/10/10 08:21:44;;;;;;;5.85;5.45;;;;;;;10.78;100.00;101064.34;6040984;23;20500;-74
2022/10/10 08:24:10;;;;;;;5.43;4.80;;;;;;;10.76;100.00;101057.44;6043569;23;20031;-71
2022/10/10 08:26:37;;;;;;;5.68;5.28;;;;;;;10.12;100.00;100958.94;6034172;23;20030;-72
2022/10/10 08:29:03;;;;;;;5.07;4.80;;;;;;;10.67;100.00;101056.09;6032615;23;20064;-71
2022/10/10 08:31:30;;;;;;;6.65;4.78;;;;;;;10.89;100.00;101082.19;6042140;23;20077;-71
2022/10/10 08:33:56;;;;;;;5.75;5.28;;;;;;;10.80;100.00;101024.84;6049689;23;20026;-72
2022/10/10 08:36:23;;;;;;;5.72;5.32;;;;;;;11.06;100.00;101036.72;6005605;23;20105;-72
2022/10/10 08:38:52;;;;;;;7.60;5.75;;;;;;;11.14;100.00;101018.81;6059197;23;20108;-71
2022/10/10 08:41:26;;;;;;;5.50;5.10;;;;;;;11.61;100.00;101079.63;6034790;23;20090;-71
2022/10/10 08:43:59;;;;;;;5.25;4.95;;;;;;;11.73;100.00;101076.38;6068059;23;20022;-73
2022/10/10 08:46:39;;;;;;;10.05;4.82;;;;;;;11.51;100.00;101006.47;6037773;23;20137;-72
2022/10/10 08:49:33;;;;;;;5.32;4.97;;;;;;;11.64;100.00;100995.31;6061848;23;20121;-73
2022/10/10 08:52:05;;;;;;;;;;;;;;;12.33;100.00;101068.00;6059334;23;20018;-73
2022/10/10 08:54:35;;;;;;;6.03;5.50;;;;;;;12.22;100.00;101029.09;6057089;23;19974;-74
2022/10/10 08:57:06;;;;;;;5.80;5.30;;;;;;;12.43;100.00;101034.13;6059619;23;20026;-73
2022/10/10 08:59:37;;;;;;;;;;;;;;;12.77;100.00;101068.22;6005856;23;20098;-72
2022/10/10 09:02:15;;;;;;;5.28;4.97;;;;;;;12.89;100.00;101065.81;6035695;23;20328;-72
2022/10/10 09:04:48;;;;;;;13.48;6.72;;;;;;;12.94;100.00;101045.34;6057889;23;20585;-72
2022/10/10 09:07:39;;;;;;;5.43;5.13;;;;;;;13.36;100.00;101065.78;6038606;23;20096;-73
2022/10/10 09:10:27;;;;;;;6.28;5.70;;;;;;;13.54;100.00;101069.13;6021517;23;20080;-72
2022/10/10 09:13:11;;;;;;;5.93;5.57;;;;;;;13.55;100.00;101047.09;6073374;23;20026;-73
2022/10/10 09:15:52;;;;;;;10.23;5.57;;;;;;;13.83;100.00;101058.66;6019117;23;20030;-72
2022/10/10 09:18:40;;;;;;;5.68;5.18;;;;;;;14.00;100.00;101067.34;6063036;23;20018;-72
2022/10/10 09:21:20;;;;;;;5.85;5.45;;;;;;;13.81;100.00;101006.91;6035836;23;20019;-74
2022/10/10 09:23:56;;;;;;;5.97;5.57;;;;;;;13.80;100.00;100958.59;6028464;23;20061;-74
2022/10/10 09:26:27;;;;;;;5.88;5.57;;;;;;;14.14;98.36;101004.84;6048364;23;20532;-73
2022/10/10 09:29:12;;;;;;;8.20;5.55;;;;;;;14.70;97.71;101078.81;6074083;23;20425;-73
2022/10/10 09:31:43;;;;;;;6.68;5.85;;;;;;;14.62;97.15;101035.38;6020354;23;20496;-74
2022/10/10 09:34:09;;;;;;;6.53;6.03;;;;;;;15.18;96.59;101080.22;6032752;23;20034;-74
2022/10/10 09:36:36;;;;;;;7.45;5.90;;;;;;;14.64;95.92;100963.00;6025232;23;20042;-73
2022/10/10 09:39:11;;;;;;;7.05;6.43;;;;;;;15.52;93.54;101066.44;6050227;23;20104;-74
2022/10/10 09:41:44;;;;;;;6.32;5.85;;;;;;;15.18;92.92;100958.59;6025024;23;20066;-73
2022/10/10 09:44:12;;;;;;;6.40;5.90;;;;;;;15.52;91.13;100994.19;6074532;23;20160;-74
2022/10/10 09:46:39;;;;;;;5.80;5.30;;;;;;;16.02;89.53;101037.50;6076286;23;20113;-74
2022/10/10 09:49:06;;;;;;;5.90;5.50;;;;;;;15.61;89.06;100955.66;6046296;23;20088;-74
2022/10/10 09:51:33;;;;;;;5.72;5.43;;;;;;;16.28;88.49;101016.28;6043348;23;20051;-73
2022/10/10 09:53:59;;;;;;;5.97;5.57;;;;;;;16.40;86.81;101006.59;6049585;23;20006;-74
2022/10/10 09:56:31;;;;;;;5.80;5.43;;;;;;;16.67;85.55;101020.50;6047303;23;20090;-74
2022/10/10 09:58:58;;;;;;;5.95;5.55;;;;;;;16.31;84.95;100985.13;6075591;23;20016;-73
2022/10/10 10:01:31;;;;;;;6.40;5.88;;;;;;;16.73;86.81;101057.16;6043008;23;20103;-73
2022/10/10 10:04:14;;;;;;;6.93;5.38;;;;;;;16.58;87.51;101055.63;6051167;23;20021;-73
2022/10/10 10:07:17;;;;;;;12.25;5.72;;;;;;;16.48;89.02;101055.44;6066616;23;20030;-74
2022/10/10 10:09:52;;;;;;;6.05;5.68;;;;;;;16.24;89.47;100991.00;6044367;23;20037;-74
2022/10/10 10:12:23;;;;;;;5.82;5.43;;;;;;;16.64;89.27;101057.84;6042738;23;20419;-74
2022/10/10 10:14:56;;;;;;;6.28;5.80;;;;;;;16.31;88.74;100987.75;6075190;23;20030;-74
2022/10/10 10:17:23;;;;;;;5.60;5.25;;;;;;;16.60;87.70;101019.28;6047355;23;20081;-74
2022/10/10 10:19:50;;;;;;;6.55;6.00;;;;;;;17.07;86.29;101064.50;6051006;23;20023;-74
2022/10/10 10:22:25;;;;;;;6.80;5.50;;;;;;;17.23;85.62;101064.22;6070519;23;20035;-73
2022/10/10 10:24:53;;;;;;;5.63;5.22;;;;;;;17.34;85.06;101065.09;6039688;23;20019;-74
2022/10/10 10:27:27;;;;;;;6.22;5.72;;;;;;;17.06;84.27;101012.41;6072844;23;20127;-74
2022/10/10 10:29:57;;;;;;;6.05;5.68;;;;;;;17.47;83.59;101070.31;6070507;23;20050;-71
2022/10/10 10:32:29;;;;;;;5.68;5.38;;;;;;;17.35;83.42;101064.13;6037865;23;20056;-72
2022/10/10 10:35:12;;;;;;;6.13;5.63;;;;;;;17.23;84.20;101024.44;6070800;23;20023;-71
2022/10/10 10:38:14;;;;;;;5.85;5.50;;;;;;;17.83;83.90;101081.78;6039953;23;20030;-72
2022/10/10 10:41:04;;;;;;;6.13;5.65;;;;;;;18.08;81.90;101077.25;6058725;23;20730;-71
2022/10/10 10:43:59;;;;;;;6.18;5.80;;;;;;;18.44;81.38;101076.19;6068670;23;20014;-71
2022/10/10 10:46:40;;;;;;;6.43;5.97;;;;;;;18.62;81.01;101071.22;6063186;23;20030;-72
2022/10/10 10:49:39;;;;;;;6.10;5.60;;;;;;;18.98;76.59;101085.16;6044576;23;20604;-71
2022/10/10 10:52:16;;;;;;;5.70;5.30;;;;;;;19.28;75.60;101081.81;6042383;23;20019;-72
2022/10/10 10:54:54;;;;;;;6.38;5.97;;;;;;;19.40;73.12;101069.28;6075705;23;20033;-72
2022/10/10 10:58:06;;;;;;;5.95;5.55;;;;;;;19.35;72.50;101066.19;6042383;23;20034;-73
2022/10/10 11:00:59;;;;;;;5.70;5.40;;;;;;;19.56;72.72;101083.97;6087494;23;20009;-72
2022/10/10 11:04:07;;;;;;;5.70;5.40;;;;;;;19.32;71.27;101005.22;6080965;23;20080;-72
2022/10/10 11:07:18;;;;;;;5.85;5.53;;;;;;;20.06;69.40;101071.69;6045886;23;20031;-71
2022/10/10 11:10:00;;;;;;;6.68;5.90;;;;;;;20.11;68.28;101066.81;6065702;23;20093;-72
2022/10/10 11:12:52;;;;;;;6.13;5.75;;;;;;;19.57;68.40;101014.63;6038379;23;20146;-72
2022/10/10 11:15:35;;;;;;;6.30;5.82;;;;;;;19.98;68.61;101049.38;6066711;23;20022;-71
2022/10/10 11:18:31;;;;;;;6.07;5.78;;;;;;;20.22;67.79;101067.72;6060537;23;20022;-72
2022/10/10 11:21:05;;;;;;;6.22;5.82;;;;;;;20.27;66.08;101074.34;6026401;23;20069;-71
2022/10/10 11:23:46;;;;;;;6.78;6.28;;;;;;;20.14;66.89;101071.03;6042927;23;20125;-73
2022/10/10 11:26:23;;;;;;;6.70;6.15;;;;;;;19.95;67.89;101076.28;6029938;23;20073;-72
2022/10/10 11:29:01;;;;;;;7.38;5.90;;;;;;;19.97;67.97;101056.53;6013384;23;20684;-72
2022/10/10 11:31:56;;;;;;;5.82;5.53;;;;;;;19.78;67.22;101005.81;6043250;23;20186;-72
2022/10/10 11:34:37;;;;;;;6.40;5.90;;;;;;;19.75;67.32;100964.31;6045454;23;20026;-73
2022/10/10 11:37:12;;;;;;;6.82;6.28;;;;;;;20.04;66.59;101016.88;6066615;23;20043;-73
2022/10/10 11:39:56;;;;;;;6.85;6.20;;;;;;;19.93;66.96;101034.63;6072835;23;20025;-73
2022/10/10 11:42:31;;;;;;;6.32;5.90;;;;;;;20.17;67.11;101067.28;6038527;23;20038;-72